Capitol Logistics 233


KSMF
Sacramento International Airport
Sacramento, California, US
KPHX
Phoenix Sky Harbor International Airport
Phoenix, Arizona, US

Route Details

Aircraft Information
Primary: Boeing 767-300BDSF
Backup: Not Available
Route Data
Distance: 562nm
Sched. Duration: 1h 50m
Avg. Duration: 1h 45m (-5m)
Times Flown: 5
Recm'd Route: SCTWN2 SCTWN DOSCO OAL LIDAT BTY J92 BLD PRFUM WOTRO BRUSR1
Planned Altitude: 37,000ft
Origin Wx: KSMF 281853Z 13003KT 9SM CLR 19/02 A3012 RMK AO2 SLP200 T01890017
Dest. Wx: KPHX 281851Z VRB04KT 10SM CLR 18/M02 A3008 RMK AO2 SLP176 T01831017
Notes:

Financial History
Total Freight: 437,620lbs
Average Load: 87,524lbs/flt
Fuel Used: 92,150lbs
Avg. Fuel Used: 18,430lbs/flt
Fuel Expense: $100,444
Avg. Fuel Expense: $20,089
Avg. Fuel Cost: $1.09/lbs
Total Gross Income: $595,519
Pilot Pay: $755
Total Expenses: $64,576
Total Revenue: $429,253
Average Revenue: $119,103.73